Terminal Aerodrome Forecast
Issued by NWS Green Bay, WI

Home | Current Version | Previous Version | Graphics & Text | Print | Product List | Glossary On
Versions: 1 2 3 4 5 6 7 8 9 10 11 12 13 14 15 16 17 18 19 20 21 22 23 24 25 26 27 28 29 30
000
FTUS43 KGRB 261138
TAFGRB
TAF
KGRB 261138Z 2612/2712 30005KT P6SM SCT030 BKN040
      TEMPO 2612/2613 SCT040
     FM261400 33006KT P6SM SCT030 BKN040
     FM262000 33006KT P6SM SCT050
     FM270100 VRB03KT P6SM SKC
      TEMPO 2708/2712 3SM BR=

USA.gov is the U.S. government's official web portal to all federal, state and local government web resources and services.